sensor_id;sensor_type;location;lat;lon;timestamp;P1;durP1;ratioP1;P2;durP2;ratioP2
58681;SDS011;44460;40.162;18.294;2023-02-13T00:00:07;12.40;;;5.00;;
58681;SDS011;44460;40.162;18.294;2023-02-13T00:02:33;13.23;;;5.32;;
58681;SDS011;44460;40.162;18.294;2023-02-13T00:04:58;16.35;;;5.70;;
58681;SDS011;44460;40.162;18.294;2023-02-13T00:07:24;14.95;;;5.75;;
58681;SDS011;44460;40.162;18.294;2023-02-13T00:09:49;17.20;;;6.05;;
58681;SDS011;44460;40.162;18.294;2023-02-13T00:12:14;17.02;;;5.68;;
58681;SDS011;44460;40.162;18.294;2023-02-13T00:14:40;13.73;;;5.63;;
58681;SDS011;44460;40.162;18.294;2023-02-13T00:17:05;10.65;;;5.40;;
58681;SDS011;44460;40.162;18.294;2023-02-13T00:21:58;14.77;;;5.30;;
58681;SDS011;44460;40.162;18.294;2023-02-13T00:24:23;16.17;;;5.47;;
58681;SDS011;44460;40.162;18.294;2023-02-13T00:26:49;16.15;;;5.38;;
58681;SDS011;44460;40.162;18.294;2023-02-13T00:29:14;12.02;;;5.22;;
58681;SDS011;44460;40.162;18.294;2023-02-13T00:31:39;13.23;;;5.60;;
58681;SDS011;44460;40.162;18.294;2023-02-13T00:34:05;11.82;;;5.90;;
58681;SDS011;44460;40.162;18.294;2023-02-13T00:36:31;11.15;;;5.57;;
58681;SDS011;44460;40.162;18.294;2023-02-13T00:38:57;10.90;;;5.22;;
58681;SDS011;44460;40.162;18.294;2023-02-13T00:41:22;10.50;;;5.15;;
58681;SDS011;44460;40.162;18.294;2023-02-13T00:43:50;15.40;;;5.57;;
58681;SDS011;44460;40.162;18.294;2023-02-13T00:46:16;17.52;;;6.25;;
58681;SDS011;44460;40.162;18.294;2023-02-13T00:48:41;12.02;;;5.38;;
58681;SDS011;44460;40.162;18.294;2023-02-13T00:51:07;9.90;;;4.93;;
58681;SDS011;44460;40.162;18.294;2023-02-13T00:53:34;12.38;;;5.57;;
58681;SDS011;44460;40.162;18.294;2023-02-13T00:55:59;12.70;;;4.97;;
58681;SDS011;44460;40.162;18.294;2023-02-13T00:58:25;16.75;;;5.70;;
58681;SDS011;44460;40.162;18.294;2023-02-13T01:00:51;10.70;;;5.55;;
58681;SDS011;44460;40.162;18.294;2023-02-13T01:03:17;9.30;;;4.95;;
58681;SDS011;44460;40.162;18.294;2023-02-13T01:05:44;11.35;;;5.18;;
58681;SDS011;44460;40.162;18.294;2023-02-13T01:08:10;13.18;;;4.72;;
58681;SDS011;44460;40.162;18.294;2023-02-13T01:10:39;13.00;;;5.20;;
58681;SDS011;44460;40.162;18.294;2023-02-13T01:13:06;12.10;;;4.70;;
58681;SDS011;44460;40.162;18.294;2023-02-13T01:15:32;13.07;;;5.88;;
58681;SDS011;44460;40.162;18.294;2023-02-13T01:17:58;15.13;;;6.28;;
58681;SDS011;44460;40.162;18.294;2023-02-13T01:20:25;12.85;;;6.00;;
58681;SDS011;44460;40.162;18.294;2023-02-13T01:22:50;13.40;;;6.28;;
58681;SDS011;44460;40.162;18.294;2023-02-13T01:25:16;14.98;;;5.63;;
58681;SDS011;44460;40.162;18.294;2023-02-13T01:27:41;14.73;;;5.38;;
58681;SDS011;44460;40.162;18.294;2023-02-13T01:30:08;12.65;;;5.93;;
58681;SDS011;44460;40.162;18.294;2023-02-13T01:32:38;16.33;;;7.07;;
58681;SDS011;44460;40.162;18.294;2023-02-13T01:35:03;13.68;;;5.50;;
58681;SDS011;44460;40.162;18.294;2023-02-13T01:37:29;13.18;;;5.20;;
58681;SDS011;44460;40.162;18.294;2023-02-13T01:39:54;14.02;;;5.95;;
58681;SDS011;44460;40.162;18.294;2023-02-13T01:42:21;11.40;;;5.60;;
58681;SDS011;44460;40.162;18.294;2023-02-13T01:49:49;14.63;;;6.15;;
58681;SDS011;44460;40.162;18.294;2023-02-13T01:52:15;21.08;;;8.18;;
58681;SDS011;44460;40.162;18.294;2023-02-13T01:54:41;13.68;;;6.30;;
58681;SDS011;44460;40.162;18.294;2023-02-13T01:57:15;12.18;;;5.95;;
58681;SDS011;44460;40.162;18.294;2023-02-13T01:59:48;16.10;;;6.55;;
58681;SDS011;44460;40.162;18.294;2023-02-13T02:02:15;12.20;;;6.55;;
58681;SDS011;44460;40.162;18.294;2023-02-13T02:04:42;14.40;;;6.68;;
58681;SDS011;44460;40.162;18.294;2023-02-13T02:07:22;18.58;;;6.05;;
58681;SDS011;44460;40.162;18.294;2023-02-13T02:09:49;15.48;;;7.10;;
58681;SDS011;44460;40.162;18.294;2023-02-13T02:12:27;13.25;;;5.97;;
58681;SDS011;44460;40.162;18.294;2023-02-13T02:14:54;12.55;;;6.07;;
58681;SDS011;44460;40.162;18.294;2023-02-13T02:17:22;15.63;;;6.32;;
58681;SDS011;44460;40.162;18.294;2023-02-13T02:27:27;12.40;;;5.35;;
58681;SDS011;44460;40.162;18.294;2023-02-13T02:37:45;10.95;;;5.25;;
58681;SDS011;44460;40.162;18.294;2023-02-13T02:42:42;13.65;;;5.95;;
58681;SDS011;44460;40.162;18.294;2023-02-13T02:50:42;13.35;;;6.15;;
58681;SDS011;44460;40.162;18.294;2023-02-13T03:01:00;13.77;;;6.03;;
58681;SDS011;44460;40.162;18.294;2023-02-13T03:03:45;12.27;;;6.13;;
58681;SDS011;44460;40.162;18.294;2023-02-13T03:09:01;20.02;;;8.20;;
58681;SDS011;44460;40.162;18.294;2023-02-13T03:11:48;13.55;;;6.75;;
58681;SDS011;44460;40.162;18.294;2023-02-13T03:14:32;11.30;;;5.90;;
58681;SDS011;44460;40.162;18.294;2023-02-13T03:16:58;10.52;;;5.97;;
58681;SDS011;44460;40.162;18.294;2023-02-13T03:30:58;13.13;;;5.78;;
58681;SDS011;44460;40.162;18.294;2023-02-13T03:33:30;13.10;;;6.38;;
58681;SDS011;44460;40.162;18.294;2023-02-13T03:41:34;12.55;;;6.70;;
58681;SDS011;44460;40.162;18.294;2023-02-13T03:44:12;14.88;;;6.88;;
58681;SDS011;44460;40.162;18.294;2023-02-13T03:46:40;22.63;;;7.80;;
58681;SDS011;44460;40.162;18.294;2023-02-13T03:49:07;12.37;;;6.80;;
58681;SDS011;44460;40.162;18.294;2023-02-13T03:54:25;16.90;;;6.55;;
58681;SDS011;44460;40.162;18.294;2023-02-13T03:57:10;13.15;;;6.35;;
58681;SDS011;44460;40.162;18.294;2023-02-13T03:59:56;15.35;;;6.80;;
58681;SDS011;44460;40.162;18.294;2023-02-13T04:02:24;13.88;;;6.63;;
58681;SDS011;44460;40.162;18.294;2023-02-13T04:04:57;12.20;;;6.45;;
58681;SDS011;44460;40.162;18.294;2023-02-13T04:07:23;14.43;;;6.55;;
58681;SDS011;44460;40.162;18.294;2023-02-13T04:10:06;13.73;;;7.18;;
58681;SDS011;44460;40.162;18.294;2023-02-13T04:15:03;27.65;;;8.88;;
58681;SDS011;44460;40.162;18.294;2023-02-13T04:20:30;15.48;;;6.80;;
58681;SDS011;44460;40.162;18.294;2023-02-13T04:22:55;13.13;;;6.60;;
58681;SDS011;44460;40.162;18.294;2023-02-13T04:25:21;12.27;;;6.47;;
58681;SDS011;44460;40.162;18.294;2023-02-13T04:27:46;12.70;;;6.72;;
58681;SDS011;44460;40.162;18.294;2023-02-13T04:30:12;14.43;;;6.57;;
58681;SDS011;44460;40.162;18.294;2023-02-13T04:32:37;13.55;;;6.65;;
58681;SDS011;44460;40.162;18.294;2023-02-13T04:35:03;15.07;;;6.40;;
58681;SDS011;44460;40.162;18.294;2023-02-13T04:37:28;12.85;;;6.45;;
58681;SDS011;44460;40.162;18.294;2023-02-13T04:39:54;14.35;;;6.22;;
58681;SDS011;44460;40.162;18.294;2023-02-13T04:42:19;10.85;;;6.10;;
58681;SDS011;44460;40.162;18.294;2023-02-13T04:44:45;17.70;;;6.20;;
58681;SDS011;44460;40.162;18.294;2023-02-13T04:47:10;15.07;;;6.80;;
58681;SDS011;44460;40.162;18.294;2023-02-13T04:49:36;20.45;;;6.68;;
58681;SDS011;44460;40.162;18.294;2023-02-13T04:52:01;14.13;;;6.80;;
58681;SDS011;44460;40.162;18.294;2023-02-13T04:54:27;10.07;;;6.18;;
58681;SDS011;44460;40.162;18.294;2023-02-13T04:56:52;16.33;;;7.05;;
58681;SDS011;44460;40.162;18.294;2023-02-13T04:59:18;13.30;;;7.35;;
58681;SDS011;44460;40.162;18.294;2023-02-13T05:01:43;14.60;;;6.57;;
58681;SDS011;44460;40.162;18.294;2023-02-13T05:04:08;17.98;;;7.18;;
58681;SDS011;44460;40.162;18.294;2023-02-13T05:06:35;11.27;;;6.00;;
58681;SDS011;44460;40.162;18.294;2023-02-13T05:09:02;16.35;;;7.45;;
58681;SDS011;44460;40.162;18.294;2023-02-13T05:11:27;14.20;;;7.03;;
58681;SDS011;44460;40.162;18.294;2023-02-13T05:13:53;14.05;;;6.82;;
58681;SDS011;44460;40.162;18.294;2023-02-13T05:16:18;15.27;;;6.35;;
58681;SDS011;44460;40.162;18.294;2023-02-13T05:18:44;12.93;;;7.03;;
58681;SDS011;44460;40.162;18.294;2023-02-13T05:21:09;11.63;;;6.45;;
58681;SDS011;44460;40.162;18.294;2023-02-13T05:23:53;14.63;;;6.93;;
58681;SDS011;44460;40.162;18.294;2023-02-13T05:26:19;14.18;;;6.75;;
58681;SDS011;44460;40.162;18.294;2023-02-13T05:28:44;16.50;;;7.43;;
58681;SDS011;44460;40.162;18.294;2023-02-13T05:31:28;17.23;;;6.65;;
58681;SDS011;44460;40.162;18.294;2023-02-13T05:33:53;15.07;;;7.10;;
58681;SDS011;44460;40.162;18.294;2023-02-13T05:36:19;14.45;;;7.22;;
58681;SDS011;44460;40.162;18.294;2023-02-13T05:38:44;14.35;;;7.18;;
58681;SDS011;44460;40.162;18.294;2023-02-13T05:41:10;16.90;;;7.00;;
58681;SDS011;44460;40.162;18.294;2023-02-13T05:43:37;12.20;;;7.03;;
58681;SDS011;44460;40.162;18.294;2023-02-13T05:46:06;19.63;;;7.68;;
58681;SDS011;44460;40.162;18.294;2023-02-13T05:48:32;16.10;;;8.20;;
58681;SDS011;44460;40.162;18.294;2023-02-13T05:50:58;14.02;;;7.45;;
58681;SDS011;44460;40.162;18.294;2023-02-13T05:53:24;11.43;;;6.63;;
58681;SDS011;44460;40.162;18.294;2023-02-13T05:55:49;14.88;;;7.57;;
58681;SDS011;44460;40.162;18.294;2023-02-13T05:58:17;16.08;;;10.13;;
58681;SDS011;44460;40.162;18.294;2023-02-13T06:00:42;18.40;;;7.53;;
58681;SDS011;44460;40.162;18.294;2023-02-13T06:03:08;20.02;;;14.38;;
58681;SDS011;44460;40.162;18.294;2023-02-13T06:05:33;13.77;;;7.38;;
58681;SDS011;44460;40.162;18.294;2023-02-13T06:07:58;16.13;;;7.30;;
58681;SDS011;44460;40.162;18.294;2023-02-13T06:10:24;13.68;;;7.55;;
58681;SDS011;44460;40.162;18.294;2023-02-13T06:12:49;17.50;;;8.30;;
58681;SDS011;44460;40.162;18.294;2023-02-13T06:15:15;12.85;;;7.68;;
58681;SDS011;44460;40.162;18.294;2023-02-13T06:17:40;19.10;;;9.82;;
58681;SDS011;44460;40.162;18.294;2023-02-13T06:20:06;15.75;;;7.35;;
58681;SDS011;44460;40.162;18.294;2023-02-13T06:22:31;13.43;;;7.70;;
58681;SDS011;44460;40.162;18.294;2023-02-13T06:24:56;17.02;;;7.97;;
58681;SDS011;44460;40.162;18.294;2023-02-13T06:27:22;14.88;;;8.05;;
58681;SDS011;44460;40.162;18.294;2023-02-13T06:29:47;18.13;;;7.70;;
58681;SDS011;44460;40.162;18.294;2023-02-13T06:32:13;14.40;;;8.23;;
58681;SDS011;44460;40.162;18.294;2023-02-13T06:34:38;12.93;;;8.95;;
58681;SDS011;44460;40.162;18.294;2023-02-13T06:37:03;13.23;;;7.47;;
58681;SDS011;44460;40.162;18.294;2023-02-13T06:39:29;13.35;;;7.10;;
58681;SDS011;44460;40.162;18.294;2023-02-13T06:41:55;16.20;;;7.10;;
58681;SDS011;44460;40.162;18.294;2023-02-13T06:44:20;16.63;;;7.38;;
58681;SDS011;44460;40.162;18.294;2023-02-13T06:46:45;11.77;;;6.90;;
58681;SDS011;44460;40.162;18.294;2023-02-13T06:49:11;14.25;;;8.15;;
58681;SDS011;44460;40.162;18.294;2023-02-13T06:51:36;12.35;;;7.03;;
58681;SDS011;44460;40.162;18.294;2023-02-13T06:54:02;16.98;;;8.52;;
58681;SDS011;44460;40.162;18.294;2023-02-13T06:56:27;12.93;;;7.45;;
58681;SDS011;44460;40.162;18.294;2023-02-13T06:58:53;18.65;;;8.25;;
58681;SDS011;44460;40.162;18.294;2023-02-13T07:01:18;14.70;;;8.20;;
58681;SDS011;44460;40.162;18.294;2023-02-13T07:03:44;15.27;;;8.88;;
58681;SDS011;44460;40.162;18.294;2023-02-13T07:06:10;14.30;;;7.80;;
58681;SDS011;44460;40.162;18.294;2023-02-13T07:08:35;15.38;;;7.57;;
58681;SDS011;44460;40.162;18.294;2023-02-13T07:11:01;11.88;;;6.75;;
58681;SDS011;44460;40.162;18.294;2023-02-13T07:13:26;15.00;;;7.97;;
58681;SDS011;44460;40.162;18.294;2023-02-13T07:15:51;16.88;;;7.72;;
58681;SDS011;44460;40.162;18.294;2023-02-13T07:18:17;15.80;;;8.23;;
58681;SDS011;44460;40.162;18.294;2023-02-13T07:20:42;17.38;;;8.23;;
58681;SDS011;44460;40.162;18.294;2023-02-13T07:23:08;13.80;;;8.90;;
58681;SDS011;44460;40.162;18.294;2023-02-13T07:25:34;19.42;;;9.45;;
58681;SDS011;44460;40.162;18.294;2023-02-13T07:28:03;17.05;;;8.57;;
58681;SDS011;44460;40.162;18.294;2023-02-13T07:30:29;21.58;;;8.85;;
58681;SDS011;44460;40.162;18.294;2023-02-13T07:32:57;17.00;;;8.65;;
58681;SDS011;44460;40.162;18.294;2023-02-13T07:35:22;15.55;;;7.70;;
58681;SDS011;44460;40.162;18.294;2023-02-13T07:37:49;20.38;;;8.70;;
58681;SDS011;44460;40.162;18.294;2023-02-13T07:40:14;17.20;;;10.93;;
58681;SDS011;44460;40.162;18.294;2023-02-13T07:42:39;16.23;;;8.98;;
58681;SDS011;44460;40.162;18.294;2023-02-13T07:45:05;35.33;;;18.67;;
58681;SDS011;44460;40.162;18.294;2023-02-13T07:47:32;17.23;;;8.65;;
58681;SDS011;44460;40.162;18.294;2023-02-13T07:49:58;19.30;;;9.73;;
58681;SDS011;44460;40.162;18.294;2023-02-13T07:52:23;27.67;;;15.68;;
58681;SDS011;44460;40.162;18.294;2023-02-13T07:54:48;22.02;;;15.20;;
58681;SDS011;44460;40.162;18.294;2023-02-13T07:57:15;12.52;;;8.00;;
58681;SDS011;44460;40.162;18.294;2023-02-13T07:59:41;14.55;;;8.85;;
58681;SDS011;44460;40.162;18.294;2023-02-13T08:02:09;16.23;;;8.57;;
58681;SDS011;44460;40.162;18.294;2023-02-13T08:04:35;19.98;;;9.75;;
58681;SDS011;44460;40.162;18.294;2023-02-13T08:07:00;19.10;;;10.73;;
58681;SDS011;44460;40.162;18.294;2023-02-13T08:09:25;22.48;;;10.65;;
58681;SDS011;44460;40.162;18.294;2023-02-13T08:12:09;21.73;;;11.20;;
58681;SDS011;44460;40.162;18.294;2023-02-13T08:14:35;17.90;;;10.60;;
58681;SDS011;44460;40.162;18.294;2023-02-13T08:17:01;22.17;;;12.07;;
58681;SDS011;44460;40.162;18.294;2023-02-13T08:19:27;21.27;;;11.50;;
58681;SDS011;44460;40.162;18.294;2023-02-13T08:21:52;23.85;;;11.70;;
58681;SDS011;44460;40.162;18.294;2023-02-13T08:24:18;18.40;;;9.15;;
58681;SDS011;44460;40.162;18.294;2023-02-13T08:26:43;19.02;;;7.68;;
58681;SDS011;44460;40.162;18.294;2023-02-13T08:29:09;14.30;;;7.40;;
58681;SDS011;44460;40.162;18.294;2023-02-13T08:31:35;18.20;;;8.00;;
58681;SDS011;44460;40.162;18.294;2023-02-13T08:34:01;13.05;;;7.57;;
58681;SDS011;44460;40.162;18.294;2023-02-13T08:36:27;18.85;;;8.35;;
58681;SDS011;44460;40.162;18.294;2023-02-13T08:38:52;13.05;;;7.80;;
58681;SDS011;44460;40.162;18.294;2023-02-13T08:41:18;14.10;;;8.15;;
58681;SDS011;44460;40.162;18.294;2023-02-13T08:43:45;16.40;;;7.85;;
58681;SDS011;44460;40.162;18.294;2023-02-13T08:46:10;15.20;;;7.03;;
58681;SDS011;44460;40.162;18.294;2023-02-13T08:48:35;12.48;;;7.03;;
58681;SDS011;44460;40.162;18.294;2023-02-13T08:51:05;14.45;;;7.97;;
58681;SDS011;44460;40.162;18.294;2023-02-13T08:53:31;16.23;;;7.60;;
58681;SDS011;44460;40.162;18.294;2023-02-13T08:55:57;16.08;;;7.60;;
58681;SDS011;44460;40.162;18.294;2023-02-13T08:58:23;12.63;;;6.97;;
58681;SDS011;44460;40.162;18.294;2023-02-13T09:00:48;12.30;;;6.95;;
58681;SDS011;44460;40.162;18.294;2023-02-13T09:03:14;14.65;;;8.02;;
58681;SDS011;44460;40.162;18.294;2023-02-13T09:05:40;16.10;;;9.20;;
58681;SDS011;44460;40.162;18.294;2023-02-13T09:08:05;14.75;;;7.40;;
58681;SDS011;44460;40.162;18.294;2023-02-13T09:10:32;17.33;;;7.93;;
58681;SDS011;44460;40.162;18.294;2023-02-13T09:12:57;14.63;;;7.57;;
58681;SDS011;44460;40.162;18.294;2023-02-13T09:15:23;12.23;;;7.40;;
58681;SDS011;44460;40.162;18.294;2023-02-13T09:17:48;14.27;;;8.38;;
58681;SDS011;44460;40.162;18.294;2023-02-13T09:20:13;12.00;;;7.70;;
58681;SDS011;44460;40.162;18.294;2023-02-13T09:22:39;12.98;;;8.02;;
58681;SDS011;44460;40.162;18.294;2023-02-13T09:25:05;12.93;;;7.28;;
58681;SDS011;44460;40.162;18.294;2023-02-13T09:27:31;17.60;;;7.65;;
58681;SDS011;44460;40.162;18.294;2023-02-13T09:29:57;16.42;;;8.18;;
58681;SDS011;44460;40.162;18.294;2023-02-13T09:32:23;16.90;;;7.25;;
58681;SDS011;44460;40.162;18.294;2023-02-13T09:34:48;13.60;;;8.05;;
58681;SDS011;44460;40.162;18.294;2023-02-13T09:37:14;15.88;;;8.70;;
58681;SDS011;44460;40.162;18.294;2023-02-13T09:39:39;18.48;;;8.02;;
58681;SDS011;44460;40.162;18.294;2023-02-13T09:42:05;16.38;;;8.05;;
58681;SDS011;44460;40.162;18.294;2023-02-13T09:44:36;12.88;;;7.40;;
58681;SDS011;44460;40.162;18.294;2023-02-13T09:49:29;12.80;;;7.40;;
58681;SDS011;44460;40.162;18.294;2023-02-13T09:51:56;23.83;;;8.30;;
58681;SDS011;44460;40.162;18.294;2023-02-13T09:54:22;12.63;;;7.45;;
58681;SDS011;44460;40.162;18.294;2023-02-13T09:56:56;17.10;;;9.33;;
58681;SDS011;44460;40.162;18.294;2023-02-13T10:02:13;14.98;;;7.15;;
58681;SDS011;44460;40.162;18.294;2023-02-13T10:04:47;12.68;;;6.97;;
58681;SDS011;44460;40.162;18.294;2023-02-13T10:17:15;13.90;;;6.93;;
58681;SDS011;44460;40.162;18.294;2023-02-13T10:22:24;12.45;;;6.93;;
58681;SDS011;44460;40.162;18.294;2023-02-13T10:24:55;17.10;;;8.20;;
58681;SDS011;44460;40.162;18.294;2023-02-13T10:27:22;13.13;;;7.28;;
58681;SDS011;44460;40.162;18.294;2023-02-13T10:29:59;12.05;;;6.75;;
58681;SDS011;44460;40.162;18.294;2023-02-13T10:32:34;13.07;;;6.40;;
58681;SDS011;44460;40.162;18.294;2023-02-13T10:35:00;12.88;;;6.70;;
58681;SDS011;44460;40.162;18.294;2023-02-13T10:37:26;15.60;;;7.85;;
58681;SDS011;44460;40.162;18.294;2023-02-13T10:39:52;23.75;;;8.77;;
58681;SDS011;44460;40.162;18.294;2023-02-13T10:42:19;11.88;;;6.80;;
58681;SDS011;44460;40.162;18.294;2023-02-13T10:50:05;13.45;;;6.53;;
58681;SDS011;44460;40.162;18.294;2023-02-13T11:00:17;13.57;;;7.10;;
58681;SDS011;44460;40.162;18.294;2023-02-13T11:02:44;14.77;;;6.90;;
58681;SDS011;44460;40.162;18.294;2023-02-13T11:07:35;12.10;;;6.97;;
58681;SDS011;44460;40.162;18.294;2023-02-13T11:10:04;14.13;;;6.60;;
58681;SDS011;44460;40.162;18.294;2023-02-13T11:12:31;12.60;;;7.35;;
58681;SDS011;44460;40.162;18.294;2023-02-13T11:14:57;15.45;;;7.07;;
58681;SDS011;44460;40.162;18.294;2023-02-13T11:17:23;13.20;;;6.78;;
58681;SDS011;44460;40.162;18.294;2023-02-13T11:19:53;11.57;;;6.53;;
58681;SDS011;44460;40.162;18.294;2023-02-13T11:22:32;13.93;;;7.65;;
58681;SDS011;44460;40.162;18.294;2023-02-13T11:25:03;13.55;;;7.88;;
58681;SDS011;44460;40.162;18.294;2023-02-13T11:27:34;18.83;;;9.82;;
58681;SDS011;44460;40.162;18.294;2023-02-13T11:30:46;19.50;;;10.48;;
58681;SDS011;44460;40.162;18.294;2023-02-13T11:32:55;18.90;;;7.60;;
58681;SDS011;44460;40.162;18.294;2023-02-13T11:35:26;35.10;;;18.88;;
58681;SDS011;44460;40.162;18.294;2023-02-13T11:40:33;16.48;;;8.00;;
58681;SDS011;44460;40.162;18.294;2023-02-13T11:42:59;15.65;;;7.63;;
58681;SDS011;44460;40.162;18.294;2023-02-13T11:45:24;15.70;;;7.82;;
58681;SDS011;44460;40.162;18.294;2023-02-13T11:47:51;11.20;;;7.05;;
58681;SDS011;44460;40.162;18.294;2023-02-13T11:52:43;15.35;;;7.60;;
58681;SDS011;44460;40.162;18.294;2023-02-13T11:55:31;18.17;;;7.43;;
58681;SDS011;44460;40.162;18.294;2023-02-13T11:57:58;13.77;;;7.38;;
58681;SDS011;44460;40.162;18.294;2023-02-13T12:02:58;15.90;;;9.95;;
58681;SDS011;44460;40.162;18.294;2023-02-13T12:05:25;21.58;;;9.48;;
58681;SDS011;44460;40.162;18.294;2023-02-13T12:07:58;14.85;;;9.68;;
58681;SDS011;44460;40.162;18.294;2023-02-13T12:10:28;13.52;;;8.35;;
58681;SDS011;44460;40.162;18.294;2023-02-13T12:12:54;14.00;;;8.43;;
58681;SDS011;44460;40.162;18.294;2023-02-13T12:15:25;12.75;;;7.75;;
58681;SDS011;44460;40.162;18.294;2023-02-13T12:18:04;15.52;;;8.00;;
58681;SDS011;44460;40.162;18.294;2023-02-13T12:21:18;12.30;;;7.72;;
58681;SDS011;44460;40.162;18.294;2023-02-13T12:23:23;17.70;;;8.07;;
58681;SDS011;44460;40.162;18.294;2023-02-13T12:28:27;16.83;;;7.75;;
58681;SDS011;44460;40.162;18.294;2023-02-13T12:31:07;14.30;;;7.55;;
58681;SDS011;44460;40.162;18.294;2023-02-13T12:36:22;22.35;;;11.15;;
58681;SDS011;44460;40.162;18.294;2023-02-13T12:41:21;17.20;;;8.68;;
58681;SDS011;44460;40.162;18.294;2023-02-13T12:59:09;14.13;;;6.97;;
58681;SDS011;44460;40.162;18.294;2023-02-13T13:22:03;12.80;;;7.15;;
58681;SDS011;44460;40.162;18.294;2023-02-13T13:24:47;13.32;;;7.50;;
58681;SDS011;44460;40.162;18.294;2023-02-13T13:27:22;16.85;;;7.93;;
58681;SDS011;44460;40.162;18.294;2023-02-13T13:29:56;18.20;;;7.30;;
58681;SDS011;44460;40.162;18.294;2023-02-13T13:32:22;10.98;;;6.75;;
58681;SDS011;44460;40.162;18.294;2023-02-13T13:34:48;11.63;;;6.65;;
58681;SDS011;44460;40.162;18.294;2023-02-13T13:39:45;14.82;;;7.75;;
58681;SDS011;44460;40.162;18.294;2023-02-13T13:42:15;12.27;;;7.28;;
58681;SDS011;44460;40.162;18.294;2023-02-13T13:47:24;18.42;;;8.35;;
58681;SDS011;44460;40.162;18.294;2023-02-13T13:49:51;12.13;;;6.55;;
58681;SDS011;44460;40.162;18.294;2023-02-13T13:54:46;17.52;;;7.43;;
58681;SDS011;44460;40.162;18.294;2023-02-13T13:57:16;15.48;;;7.40;;
58681;SDS011;44460;40.162;18.294;2023-02-13T14:07:32;18.10;;;9.05;;
58681;SDS011;44460;40.162;18.294;2023-02-13T14:09:58;15.98;;;8.73;;
58681;SDS011;44460;40.162;18.294;2023-02-13T14:14:50;12.07;;;7.95;;
58681;SDS011;44460;40.162;18.294;2023-02-13T14:17:47;18.08;;;11.48;;
58681;SDS011;44460;40.162;18.294;2023-02-13T14:20:02;15.77;;;8.90;;
58681;SDS011;44460;40.162;18.294;2023-02-13T14:24:54;13.98;;;8.70;;
58681;SDS011;44460;40.162;18.294;2023-02-13T14:27:21;14.27;;;9.00;;
58681;SDS011;44460;40.162;18.294;2023-02-13T14:29:47;14.73;;;7.63;;
58681;SDS011;44460;40.162;18.294;2023-02-13T14:32:17;14.00;;;8.13;;
58681;SDS011;44460;40.162;18.294;2023-02-13T14:34:48;13.68;;;7.82;;
58681;SDS011;44460;40.162;18.294;2023-02-13T14:37:19;13.32;;;8.07;;
58681;SDS011;44460;40.162;18.294;2023-02-13T14:42:31;14.52;;;7.97;;
58681;SDS011;44460;40.162;18.294;2023-02-13T14:44:59;12.75;;;7.22;;
58681;SDS011;44460;40.162;18.294;2023-02-13T14:49:52;13.70;;;7.80;;
58681;SDS011;44460;40.162;18.294;2023-02-13T14:52:19;18.08;;;9.35;;
58681;SDS011;44460;40.162;18.294;2023-02-13T14:54:52;15.35;;;9.40;;
58681;SDS011;44460;40.162;18.294;2023-02-13T15:00:22;13.15;;;8.68;;
58681;SDS011;44460;40.162;18.294;2023-02-13T15:02:51;15.30;;;8.73;;
58681;SDS011;44460;40.162;18.294;2023-02-13T15:05:22;16.75;;;8.68;;
58681;SDS011;44460;40.162;18.294;2023-02-13T15:07:58;15.20;;;8.52;;
58681;SDS011;44460;40.162;18.294;2023-02-13T15:11:01;13.32;;;8.13;;
58681;SDS011;44460;40.162;18.294;2023-02-13T15:13:21;17.83;;;8.98;;
58681;SDS011;44460;40.162;18.294;2023-02-13T15:15:50;14.90;;;8.30;;
58681;SDS011;44460;40.162;18.294;2023-02-13T15:18:26;15.02;;;8.70;;
58681;SDS011;44460;40.162;18.294;2023-02-13T15:20:56;14.85;;;8.85;;
58681;SDS011;44460;40.162;18.294;2023-02-13T15:23:28;15.38;;;8.77;;
58681;SDS011;44460;40.162;18.294;2023-02-13T15:26:04;23.10;;;10.00;;
58681;SDS011;44460;40.162;18.294;2023-02-13T15:28:30;19.60;;;9.20;;
58681;SDS011;44460;40.162;18.294;2023-02-13T15:31:00;20.35;;;14.77;;
58681;SDS011;44460;40.162;18.294;2023-02-13T15:33:28;14.32;;;8.45;;
58681;SDS011;44460;40.162;18.294;2023-02-13T15:35:57;14.00;;;8.13;;
58681;SDS011;44460;40.162;18.294;2023-02-13T15:38:24;15.50;;;8.73;;
58681;SDS011;44460;40.162;18.294;2023-02-13T15:40:51;16.45;;;8.98;;
58681;SDS011;44460;40.162;18.294;2023-02-13T15:43:20;13.50;;;9.10;;
58681;SDS011;44460;40.162;18.294;2023-02-13T15:45:47;14.98;;;9.13;;
58681;SDS011;44460;40.162;18.294;2023-02-13T15:48:16;19.63;;;10.32;;
58681;SDS011;44460;40.162;18.294;2023-02-13T15:50:42;21.75;;;8.95;;
58681;SDS011;44460;40.162;18.294;2023-02-13T15:53:14;15.93;;;9.73;;
58681;SDS011;44460;40.162;18.294;2023-02-13T15:55:44;15.77;;;9.73;;
58681;SDS011;44460;40.162;18.294;2023-02-13T15:58:19;13.40;;;7.63;;
58681;SDS011;44460;40.162;18.294;2023-02-13T16:00:44;15.85;;;10.63;;
58681;SDS011;44460;40.162;18.294;2023-02-13T16:03:14;16.65;;;9.13;;
58681;SDS011;44460;40.162;18.294;2023-02-13T16:05:40;27.77;;;15.52;;
58681;SDS011;44460;40.162;18.294;2023-02-13T16:10:50;21.95;;;14.55;;
58681;SDS011;44460;40.162;18.294;2023-02-13T16:13:32;71.22;;;29.65;;
58681;SDS011;44460;40.162;18.294;2023-02-13T16:15:58;23.70;;;13.95;;
58681;SDS011;44460;40.162;18.294;2023-02-13T16:18:24;42.85;;;23.70;;
58681;SDS011;44460;40.162;18.294;2023-02-13T16:20:53;30.05;;;15.10;;
58681;SDS011;44460;40.162;18.294;2023-02-13T16:23:19;16.83;;;10.98;;
58681;SDS011;44460;40.162;18.294;2023-02-13T16:25:45;17.17;;;10.50;;
58681;SDS011;44460;40.162;18.294;2023-02-13T16:28:17;15.43;;;9.23;;
58681;SDS011;44460;40.162;18.294;2023-02-13T16:30:44;15.82;;;9.48;;
58681;SDS011;44460;40.162;18.294;2023-02-13T16:35:41;16.25;;;9.75;;
58681;SDS011;44460;40.162;18.294;2023-02-13T16:38:24;21.95;;;11.57;;
58681;SDS011;44460;40.162;18.294;2023-02-13T16:40:50;21.02;;;13.00;;
58681;SDS011;44460;40.162;18.294;2023-02-13T16:46:12;21.25;;;13.32;;
58681;SDS011;44460;40.162;18.294;2023-02-13T16:48:44;18.58;;;10.95;;
58681;SDS011;44460;40.162;18.294;2023-02-13T16:51:10;18.23;;;11.23;;
58681;SDS011;44460;40.162;18.294;2023-02-13T16:53:36;21.80;;;13.82;;
58681;SDS011;44460;40.162;18.294;2023-02-13T16:56:06;22.45;;;13.32;;
58681;SDS011;44460;40.162;18.294;2023-02-13T16:58:32;26.30;;;14.73;;
58681;SDS011;44460;40.162;18.294;2023-02-13T17:00:57;22.52;;;13.85;;
58681;SDS011;44460;40.162;18.294;2023-02-13T17:03:23;29.33;;;17.77;;
58681;SDS011;44460;40.162;18.294;2023-02-13T17:05:48;22.45;;;13.15;;
58681;SDS011;44460;40.162;18.294;2023-02-13T17:08:14;29.15;;;15.38;;
58681;SDS011;44460;40.162;18.294;2023-02-13T17:10:39;20.13;;;11.95;;
58681;SDS011;44460;40.162;18.294;2023-02-13T17:15:33;21.25;;;11.70;;
58681;SDS011;44460;40.162;18.294;2023-02-13T17:17:58;20.67;;;11.88;;
58681;SDS011;44460;40.162;18.294;2023-02-13T17:20:25;21.55;;;11.90;;
58681;SDS011;44460;40.162;18.294;2023-02-13T17:22:52;21.88;;;14.18;;
58681;SDS011;44460;40.162;18.294;2023-02-13T17:25:24;22.50;;;12.55;;
58681;SDS011;44460;40.162;18.294;2023-02-13T17:27:51;26.73;;;13.43;;
58681;SDS011;44460;40.162;18.294;2023-02-13T17:30:21;22.92;;;13.77;;
58681;SDS011;44460;40.162;18.294;2023-02-13T17:32:47;23.40;;;14.00;;
58681;SDS011;44460;40.162;18.294;2023-02-13T17:35:13;23.15;;;13.38;;